Terminal Aerodrome Forecast
Issued by NWS Bismarck, ND

Home | Current Version | Previous Version | Text Only | Print | Product List | Glossary Off
Versions: 1 2 3 4 5 6 7 8 9 10 11 12 13 14 15 16 17 18 19 20

000
FTUS43 KBIS 242200 AAB
TAFISN
TAF AMD
KISN 242208Z 2422/2518 13007KT P6SM -SN OVC018
     FM250400 08009KT 1SM -SN BR OVC015
     FM251000 04009KT 4SM -SHSN BKN025 OVC035=

USA.gov is the U.S. government's official web portal to all federal, state and local government web resources and services.